Time;durP1;ratioP1;P1;durP2;ratioP2;P2;SDS_P1;SDS_P2;PMS_P1;PMS_P2;Temp;Humidity;BMP_temperature;BMP_pressure;BME280_temperature;BME280_humidity;BME280_pressure;Samples;Min_cycle;Max_cycle;Signal;HPM_P1;HPM_P2
2022/05/02 00:00:11;;;;;;;25.08;4.07;;;35.90;18.80;;;;;;5059315;28;20447;-65
2022/05/02 00:02:39;;;;;;;28.35;4.25;;;35.80;18.80;;;;;;5076541;28;20036;-66
2022/05/02 00:05:06;;;;;;;14.15;3.63;;;35.80;19.80;;;;;;5059624;28;20020;-65
2022/05/02 00:07:33;;;;;;;21.35;3.58;;;35.70;19.60;;;;;;5059215;28;20500;-66
2022/05/02 00:09:59;;;;;;;14.95;4.15;;;35.80;19.70;;;;;;5057912;28;20040;-65
2022/05/02 00:12:26;;;;;;;21.42;3.97;;;35.60;19.40;;;;;;5059016;28;20059;-66
2022/05/02 00:14:52;;;;;;;20.15;4.03;;;35.60;19.40;;;;;;5075566;28;20080;-65
2022/05/02 00:17:19;;;;;;;26.85;3.58;;;35.50;19.40;;;;;;5075612;28;20186;-65
2022/05/02 00:19:45;;;;;;;18.40;3.95;;;35.30;19.10;;;;;;5058066;28;20038;-66
2022/05/02 00:22:11;;;;;;;40.50;5.57;;;35.20;19.50;;;;;;5058473;28;20039;-66
2022/05/02 00:24:38;;;;;;;21.70;4.55;;;35.10;19.70;;;;;;5056855;28;20043;-66
2022/05/02 00:27:07;;;;;;;22.70;4.05;;;35.00;19.50;;;;;;5058359;28;20042;-65
2022/05/02 00:29:33;;;;;;;31.08;3.83;;;34.80;19.40;;;;;;5057854;28;20478;-67
2022/05/02 00:32:00;;;;;;;16.83;3.40;;;34.90;19.40;;;;;;5058646;28;20049;-65
2022/05/02 00:34:26;;;;;;;22.20;3.55;;;34.80;19.50;;;;;;5058021;28;20043;-65
2022/05/02 00:36:52;;;;;;;16.63;3.40;;;34.70;19.50;;;;;;5057527;28;20051;-65
2022/05/02 00:39:19;;;;;;;15.50;3.65;;;34.60;19.70;;;;;;5077556;28;20091;-64
2022/05/02 00:41:45;;;;;;;26.63;4.13;;;34.50;20.10;;;;;;5058936;28;20079;-66
2022/05/02 00:44:12;;;;;;;24.20;4.43;;;34.50;20.20;;;;;;5073602;28;20100;-66
2022/05/02 00:46:39;;;;;;;50.25;4.68;;;34.30;20.10;;;;;;5077590;28;20087;-66
2022/05/02 00:49:06;;;;;;;18.05;3.63;;;34.30;20.30;;;;;;5054801;28;20132;-66
2022/05/02 00:51:32;;;;;;;22.58;4.10;;;34.20;20.10;;;;;;5077335;28;20049;-67
2022/05/02 00:53:58;;;;;;;29.23;4.05;;;34.30;20.20;;;;;;5056435;28;20069;-68
2022/05/02 00:56:25;;;;;;;20.15;4.30;;;34.20;20.10;;;;;;5058145;28;20522;-65
2022/05/02 00:58:52;;;;;;;21.70;3.70;;;34.10;20.20;;;;;;5057207;28;20043;-68
2022/05/02 01:01:19;;;;;;;21.20;4.20;;;34.10;20.50;;;;;;5076354;28;20078;-65
2022/05/02 01:03:45;;;;;;;15.88;3.55;;;34.00;20.90;;;;;;5062561;28;20050;-64
2022/05/02 01:08:57;;;;;;;22.15;5.22;;;33.90;21.30;;;;;;5074335;28;20064;-67
2022/05/02 01:11:23;;;;;;;27.55;5.10;;;33.80;21.10;;;;;;5057342;28;20040;-67
2022/05/02 01:13:50;;;;;;;23.27;3.75;;;33.80;21.30;;;;;;5056923;28;20088;-69
2022/05/02 01:16:26;;;;;;;17.05;3.78;;;33.80;21.30;;;;;;5056777;28;20040;-68
2022/05/02 01:18:55;;;;;;;16.80;3.78;;;33.70;20.80;;;;;;5077756;28;20056;-65
2022/05/02 01:21:26;;;;;;;19.25;3.90;;;33.50;20.80;;;;;;5053770;28;20040;-66
2022/05/02 01:23:57;;;;;;;17.15;3.90;;;33.30;21.20;;;;;;5059032;28;20487;-66
2022/05/02 01:26:24;;;;;;;23.65;4.00;;;33.20;21.30;;;;;;5073690;28;20050;-67
2022/05/02 01:28:52;;;;;;;16.90;4.57;;;33.20;21.60;;;;;;5054419;28;20131;-65
2022/05/02 01:31:19;;;;;;;22.75;4.70;;;33.10;22.00;;;;;;5057703;28;20045;-65
2022/05/02 01:33:48;;;;;;;20.65;4.57;;;33.00;22.30;;;;;;5057833;28;20050;-65
2022/05/02 01:36:15;;;;;;;19.08;4.28;;;33.00;22.30;;;;;;5056851;28;20142;-65
2022/05/02 01:38:44;;;;;;;18.50;4.13;;;32.90;21.60;;;;;;5059894;28;20042;-65
2022/05/02 01:41:11;;;;;;;15.88;4.43;;;32.80;20.80;;;;;;5075013;28;20053;-66
2022/05/02 01:43:38;;;;;;;16.13;4.18;;;32.80;20.10;;;;;;5062463;28;20216;-65
2022/05/02 01:46:08;;;;;;;14.90;3.65;;;32.70;19.90;;;;;;5041479;28;20056;-65
2022/05/02 01:48:35;;;;;;;20.20;4.40;;;32.60;20.40;;;;;;5073354;28;20087;-65
2022/05/02 01:51:02;;;;;;;17.23;4.10;;;32.50;21.30;;;;;;5055577;28;20050;-65
2022/05/02 01:53:29;;;;;;;20.00;4.18;;;32.40;21.50;;;;;;5056706;28;20148;-68
2022/05/02 01:55:56;;;;;;;21.00;4.50;;;32.10;22.10;;;;;;5057226;28;20052;-67
2022/05/02 01:58:23;;;;;;;23.15;4.43;;;32.00;22.20;;;;;;5057416;28;20059;-65
2022/05/02 02:00:49;;;;;;;26.70;5.68;;;32.00;22.40;;;;;;5057369;28;20062;-67
2022/05/02 02:03:16;;;;;;;20.77;4.82;;;31.80;23.20;;;;;;5076718;28;20140;-66
2022/05/02 02:05:51;;;;;;;25.85;5.75;;;31.60;23.70;;;;;;5071268;28;20059;-68
2022/05/02 02:08:32;;;;;;;23.80;5.28;;;31.60;24.10;;;;;;5057592;28;20077;-65
2022/05/02 02:11:01;;;;;;;34.83;6.70;;;31.40;24.50;;;;;;5056113;28;20061;-68
2022/05/02 02:13:28;;;;;;;30.75;5.75;;;31.30;24.90;;;;;;5064641;28;20100;-66
2022/05/02 02:15:57;;;;;;;26.17;5.93;;;31.10;24.80;;;;;;5053996;28;20050;-65
2022/05/02 02:18:24;;;;;;;26.95;5.13;;;31.00;24.70;;;;;;5054324;28;20482;-64
2022/05/02 02:20:54;;;;;;;20.52;4.78;;;30.90;24.30;;;;;;5054225;28;20053;-64
2022/05/02 02:23:21;;;;;;;24.90;5.38;;;30.80;24.10;;;;;;5055493;28;20526;-65
2022/05/02 02:25:48;;;;;;;26.27;5.50;;;30.80;24.30;;;;;;5036874;28;20061;-67
2022/05/02 02:28:15;;;;;;;19.77;5.22;;;30.70;24.30;;;;;;5054944;28;20086;-66
2022/05/02 02:30:43;;;;;;;26.63;5.10;;;30.60;24.20;;;;;;5035910;28;20047;-67
2022/05/02 02:33:09;;;;;;;26.90;5.47;;;30.40;24.30;;;;;;5055058;28;20068;-68
2022/05/02 02:35:36;;;;;;;31.33;5.55;;;30.40;24.50;;;;;;5034656;28;20097;-65
2022/05/02 02:38:03;;;;;;;21.23;5.07;;;30.40;24.60;;;;;;5052516;28;20082;-66
2022/05/02 02:40:30;;;;;;;29.92;6.68;;;30.30;25.00;;;;;;5035236;28;20129;-62
2022/05/02 02:42:57;;;;;;;33.83;6.88;;;30.20;25.30;;;;;;5048987;28;20083;-64
2022/05/02 02:45:23;;;;;;;82.65;8.63;;;30.20;25.60;;;;;;5034385;28;20545;-65
2022/05/02 02:47:51;;;;;;;116.63;10.65;;;30.00;25.40;;;;;;5032678;28;20182;-68
2022/05/02 02:50:18;;;;;;;79.68;7.75;;;30.00;25.30;;;;;;5034910;28;20057;-67
2022/05/02 02:52:44;;;;;;;30.45;5.03;;;29.90;25.40;;;;;;5037087;28;20078;-68
2022/05/02 02:55:10;;;;;;;31.17;5.53;;;29.90;25.90;;;;;;5051737;28;20060;-65
2022/05/02 02:57:37;;;;;;;23.63;5.25;;;29.70;25.60;;;;;;5049932;28;20089;-66
2022/05/02 03:00:07;;;;;;;19.08;4.88;;;29.50;25.50;;;;;;5056058;28;20076;-67
2022/05/02 03:02:36;;;;;;;19.48;4.72;;;29.40;25.80;;;;;;5054299;28;20071;-66
2022/05/02 03:07:48;;;;;;;28.48;5.80;;;29.20;25.90;;;;;;5054074;28;20090;-68
2022/05/02 03:10:14;;;;;;;25.02;5.32;;;29.10;26.10;;;;;;5035669;28;20203;-68
2022/05/02 03:12:41;;;;;;;20.17;4.60;;;29.10;26.20;;;;;;5035871;28;20130;-66
2022/05/02 03:15:08;;;;;;;35.30;5.75;;;29.00;26.20;;;;;;5073644;28;20065;-65
2022/05/02 03:17:34;;;;;;;25.17;4.75;;;29.00;25.80;;;;;;5073189;28;20084;-68
2022/05/02 03:20:00;;;;;;;21.30;4.57;;;28.80;25.80;;;;;;5058860;28;20083;-66
2022/05/02 03:22:27;;;;;;;26.60;5.80;;;28.80;26.10;;;;;;5056131;28;20075;-67
2022/05/02 03:24:53;;;;;;;21.98;5.25;;;28.70;26.50;;;;;;5073807;28;20091;-67
2022/05/02 03:27:20;;;;;;;26.98;5.00;;;28.60;26.80;;;;;;5054489;28;20152;-68
2022/05/02 03:29:46;;;;;;;25.23;4.93;;;28.50;27.00;;;;;;5075644;28;20076;-65
2022/05/02 03:32:12;;;;;;;27.20;5.00;;;28.40;27.10;;;;;;5061359;28;20088;-65
2022/05/02 03:34:39;;;;;;;16.48;4.50;;;28.40;27.00;;;;;;5057314;28;20123;-65
2022/05/02 03:37:06;;;;;;;23.63;4.88;;;28.40;26.90;;;;;;5074696;28;20567;-65
2022/05/02 03:39:32;;;;;;;28.55;5.47;;;28.40;26.90;;;;;;5057593;28;20439;-65
2022/05/02 03:41:58;;;;;;;21.85;4.03;;;28.40;25.90;;;;;;5078676;28;20067;-63
2022/05/02 03:44:25;;;;;;;24.85;4.30;;;28.40;24.80;;;;;;5076243;28;20110;-65
2022/05/02 03:46:51;;;;;;;17.02;4.18;;;28.30;24.80;;;;;;5059182;28;20066;-65
2022/05/02 03:49:18;;;;;;;24.55;4.97;;;28.30;25.00;;;;;;5075736;28;20458;-67
2022/05/02 03:51:44;;;;;;;22.85;4.55;;;28.20;25.40;;;;;;5059184;28;20535;-67
2022/05/02 03:54:10;;;;;;;22.90;4.55;;;28.20;25.70;;;;;;5056531;28;20141;-66
2022/05/02 03:56:37;;;;;;;23.30;4.57;;;28.10;25.90;;;;;;5058004;28;20421;-65
2022/05/02 03:59:04;;;;;;;21.15;4.57;;;28.10;25.80;;;;;;5075104;28;20068;-65
2022/05/02 04:01:31;;;;;;;22.23;4.28;;;28.00;25.70;;;;;;5077878;28;20467;-67
2022/05/02 04:03:58;;;;;;;20.63;4.25;;;28.00;25.30;;;;;;5060813;28;20071;-65
2022/05/02 04:06:24;;;;;;;29.52;5.22;;;27.90;24.60;;;;;;5060131;28;20070;-65
2022/05/02 04:08:50;;;;;;;21.80;4.22;;;27.90;24.60;;;;;;5075190;28;20103;-65
2022/05/02 04:11:17;;;;;;;17.63;4.47;;;27.90;24.10;;;;;;5078324;28;20061;-64
2022/05/02 04:13:43;;;;;;;19.55;3.75;;;27.90;24.30;;;;;;5056161;28;20158;-64
2022/05/02 04:16:10;;;;;;;12.48;2.90;;;27.80;24.00;;;;;;5036806;28;20065;-67
2022/05/02 04:18:36;;;;;;;19.98;3.95;;;27.70;23.90;;;;;;5040800;28;20209;-65
2022/05/02 04:21:03;;;;;;;16.55;4.57;;;27.70;23.90;;;;;;5052079;28;20077;-66
2022/05/02 04:23:29;;;;;;;23.33;3.60;;;27.60;23.90;;;;;;5072981;28;20442;-67
2022/05/02 04:25:56;;;;;;;22.00;4.50;;;27.50;23.80;;;;;;5070963;28;20092;-67
2022/05/02 04:28:22;;;;;;;20.60;4.00;;;27.40;24.00;;;;;;5042622;28;20544;-64
2022/05/02 04:30:49;;;;;;;18.73;3.97;;;27.30;24.20;;;;;;5072792;28;20066;-65
2022/05/02 04:33:15;;;;;;;16.48;4.05;;;27.20;24.30;;;;;;5040246;28;20061;-66
2022/05/02 04:35:42;;;;;;;17.27;4.47;;;27.20;24.90;;;;;;5071312;28;20141;-65
2022/05/02 04:38:08;;;;;;;21.48;4.25;;;27.10;25.20;;;;;;5052536;28;20117;-67
2022/05/02 04:40:35;;;;;;;24.83;4.53;;;27.10;25.30;;;;;;5052421;28;20096;-68
2022/05/02 04:43:01;;;;;;;17.42;3.88;;;27.10;25.70;;;;;;5041582;28;20076;-66
2022/05/02 04:45:28;;;;;;;15.85;3.55;;;26.90;25.60;;;;;;5043294;28;20444;-66
2022/05/02 04:47:55;;;;;;;31.73;4.82;;;26.80;26.30;;;;;;5055401;28;20096;-69
2022/05/02 04:50:21;;;;;;;25.38;4.45;;;26.60;27.30;;;;;;5040089;28;20065;-65
2022/05/02 04:52:47;;;;;;;26.42;4.55;;;26.60;28.00;;;;;;5070563;28;20128;-68
2022/05/02 04:55:14;;;;;;;24.13;4.35;;;26.50;28.60;;;;;;5042174;28;20086;-65
2022/05/02 04:57:41;;;;;;;28.35;4.45;;;26.40;28.80;;;;;;5043520;28;20520;-67
2022/05/02 05:00:08;;;;;;;32.45;4.80;;;26.30;29.30;;;;;;5053289;28;20090;-68
2022/05/02 05:02:34;;;;;;;34.30;5.18;;;26.20;29.70;;;;;;5047150;28;20071;-67
2022/05/02 05:05:01;;;;;;;33.50;5.78;;;26.20;29.90;;;;;;5046676;28;20071;-67
2022/05/02 05:07:27;;;;;;;25.77;4.57;;;26.20;30.00;;;;;;5025242;28;20146;-68
2022/05/02 05:09:54;;;;;;;23.27;5.03;;;26.20;30.40;;;;;;5042455;28;20070;-67
2022/05/02 05:12:46;;;;;;;31.73;4.60;;;26.00;30.60;;;;;;5069921;28;20102;-68
2022/05/02 05:18:50;;;;;;;35.70;5.45;;;26.00;30.70;;;;;;5069673;28;20077;-66
2022/05/02 05:21:32;;;;;;;26.30;5.00;;;25.90;30.80;;;;;;5036035;28;20530;-65
2022/05/02 05:24:36;;;;;;;28.10;5.47;;;25.90;30.80;;;;;;5039099;28;20078;-66
2022/05/02 05:27:35;;;;;;;28.73;4.38;;;25.80;30.80;;;;;;5036334;28;20585;-66
2022/05/02 05:30:07;;;;;;;25.85;5.32;;;25.70;30.60;;;;;;5042049;28;20127;-66
2022/05/02 05:32:46;;;;;;;20.15;4.28;;;25.50;30.70;;;;;;5039887;28;20070;-68
2022/05/02 05:35:18;;;;;;;27.40;4.25;;;25.40;30.50;;;;;;5052287;28;20560;-66
2022/05/02 05:38:01;;;;;;;22.92;4.68;;;25.40;30.00;;;;;;5062884;28;20585;-66
2022/05/02 05:40:44;;;;;;;18.63;3.60;;;25.40;29.80;;;;;;5035051;28;20607;-68
2022/05/02 05:43:32;;;;;;;16.77;3.50;;;25.30;29.50;;;;;;5019746;28;20075;-66
2022/05/02 05:46:37;;;;;;;20.50;4.30;;;25.20;29.60;;;;;;5035806;28;20075;-68
2022/05/02 05:49:09;;;;;;;19.30;4.65;;;25.10;29.60;;;;;;5034856;28;20105;-67
2022/05/02 05:52:11;;;;;;;16.23;4.25;;;25.00;29.90;;;;;;5041976;28;20553;-64
2022/05/02 05:55:05;;;;;;;16.05;4.18;;;25.00;29.70;;;;;;5039304;28;20175;-65
2022/05/02 05:58:10;;;;;;;18.38;4.25;;;24.90;29.40;;;;;;5064212;28;20079;-65
2022/05/02 06:00:45;;;;;;;18.20;3.85;;;24.90;29.20;;;;;;5038480;28;20101;-66
2022/05/02 06:03:16;;;;;;;22.77;4.40;;;24.90;29.20;;;;;;5055010;28;20456;-66
2022/05/02 06:05:45;;;;;;;19.48;4.65;;;24.80;29.10;;;;;;5066706;28;20151;-66
2022/05/02 06:08:18;;;;;;;18.02;4.20;;;24.80;29.00;;;;;;5045439;28;20091;-65
2022/05/02 06:10:45;;;;;;;17.42;3.70;;;24.70;29.20;;;;;;5043768;28;20091;-66
2022/05/02 06:13:19;;;;;;;13.48;4.22;;;24.70;29.20;;;;;;5044114;28;20116;-66
2022/05/02 06:18:40;;;;;;;12.38;3.75;;;24.40;29.50;;;;;;5074970;28;20083;-66
2022/05/02 06:21:07;;;;;;;12.00;3.40;;;24.40;29.60;;;;;;5057305;28;20080;-65
2022/05/02 06:23:43;;;;;;;12.85;3.30;;;24.40;29.60;;;;;;5055222;28;20088;-67
2022/05/02 06:26:10;;;;;;;15.73;3.13;;;24.40;29.70;;;;;;5073639;28;20079;-65
2022/05/02 06:28:44;;;;;;;16.05;3.90;;;24.40;29.80;;;;;;5074645;28;20221;-66
2022/05/02 06:31:18;;;;;;;17.33;3.53;;;24.30;29.70;;;;;;5055871;28;20525;-68
2022/05/02 06:33:51;;;;;;;17.10;3.08;;;24.30;29.70;;;;;;5055405;28;20549;-66
2022/05/02 06:36:36;;;;;;;16.70;3.75;;;24.20;30.00;;;;;;5057200;28;20063;-66
2022/05/02 06:39:08;;;;;;;20.38;3.63;;;24.10;29.70;;;;;;5057144;28;20137;-65
2022/05/02 06:42:02;;;;;;;14.52;3.08;;;24.00;29.60;;;;;;5055667;28;20072;-68
2022/05/02 06:45:01;;;;;;;14.80;3.28;;;24.00;29.60;;;;;;5074812;28;20078;-67
2022/05/02 06:47:49;;;;;;;22.33;3.83;;;23.90;29.30;;;;;;5073206;28;20080;-67
2022/05/02 06:50:22;;;;;;;11.48;2.95;;;23.80;29.00;;;;;;5057693;28;20082;-65
2022/05/02 06:53:07;;;;;;;15.55;3.50;;;23.80;28.40;;;;;;5040684;28;20549;-68
2022/05/02 06:55:41;;;;;;;9.07;2.50;;;23.70;27.90;;;;;;5055752;28;20433;-69
2022/05/02 06:58:44;;;;;;;11.48;2.55;;;23.80;26.90;;;;;;5054972;28;20530;-68
2022/05/02 07:01:31;;;;;;;16.92;2.80;;;23.80;26.60;;;;;;5071415;28;20071;-66
2022/05/02 07:04:13;;;;;;;15.55;2.78;;;23.80;25.60;;;;;;5052334;28;20076;-67
2022/05/02 07:06:46;;;;;;;9.82;2.60;;;23.80;25.10;;;;;;5071459;28;21135;-65
2022/05/02 07:09:47;;;;;;;18.88;3.10;;;23.80;24.80;;;;;;5076841;28;20193;-65
2022/05/02 07:12:24;;;;;;;15.07;2.75;;;23.80;24.40;;;;;;5052303;28;20089;-65
2022/05/02 07:15:06;;;;;;;13.13;2.80;;;23.80;23.90;;;;;;5056204;28;20692;-67
2022/05/02 07:17:45;;;;;;;11.57;2.58;;;23.80;23.80;;;;;;5052320;28;20154;-65
2022/05/02 07:20:38;;;;;;;13.98;2.70;;;23.80;23.50;;;;;;5038683;28;20082;-66
2022/05/02 07:23:39;;;;;;;22.08;4.72;;;23.90;23.30;;;;;;5035213;28;20111;-66
2022/05/02 07:26:14;;;;;;;50.75;23.50;;;23.80;23.50;;;;;;5053138;28;20083;-66
2022/05/02 07:28:48;;;;;;;21.90;4.38;;;23.80;23.60;;;;;;5039374;28;20548;-68
2022/05/02 07:31:24;;;;;;;20.50;3.85;;;23.70;23.60;;;;;;5057709;28;20141;-69
2022/05/02 07:33:55;;;;;;;18.23;2.93;;;23.70;23.80;;;;;;5053517;28;20180;-67
2022/05/02 07:36:24;;;;;;;20.08;3.50;;;23.60;23.80;;;;;;5040070;28;20306;-66
2022/05/02 07:38:54;;;;;;;34.38;3.80;;;23.60;23.40;;;;;;5039754;28;20530;-65
2022/05/02 07:41:27;;;;;;;20.02;3.13;;;23.70;23.60;;;;;;5038045;28;20149;-66
2022/05/02 07:44:01;;;;;;;21.30;2.80;;;23.70;23.40;;;;;;5058386;28;20106;-67
2022/05/02 07:46:45;;;;;;;21.98;3.35;;;23.70;23.80;;;;;;5058709;28;20076;-64
2022/05/02 07:49:26;;;;;;;14.95;3.05;;;23.60;23.90;;;;;;5038185;28;20084;-65
2022/05/02 07:51:53;;;;;;;21.08;3.00;;;23.60;23.90;;;;;;5041096;28;20125;-65
2022/05/02 07:54:28;;;;;;;17.27;2.72;;;23.50;23.60;;;;;;5057286;28;20478;-67
2022/05/02 07:57:00;;;;;;;23.52;3.10;;;23.50;23.40;;;;;;5053186;28;20445;-65
2022/05/02 07:59:33;;;;;;;17.88;3.20;;;23.50;23.60;;;;;;5047651;28;20167;-66
2022/05/02 08:02:00;;;;;;;25.02;3.25;;;23.50;23.70;;;;;;5039991;28;20099;-65
2022/05/02 08:04:26;;;;;;;14.88;2.80;;;23.50;23.70;;;;;;5037365;28;20410;-66
2022/05/02 08:07:19;;;;;;;22.58;3.97;;;23.40;23.80;;;;;;5039764;28;20522;-65
2022/05/02 08:10:11;;;;;;;18.58;3.50;;;23.40;23.60;;;;;;5054425;28;20105;-64
2022/05/02 08:12:42;;;;;;;17.23;3.35;;;23.30;23.50;;;;;;5056091;28;20067;-65
2022/05/02 08:15:33;;;;;;;21.60;3.60;;;23.30;23.70;;;;;;5039880;28;20504;-65
2022/05/02 08:18:18;;;;;;;19.98;4.13;;;23.20;23.80;;;;;;5053145;28;20437;-66
2022/05/02 08:20:51;;;;;;;13.98;3.50;;;23.30;24.20;;;;;;5040885;28;20080;-66
2022/05/02 08:27:33;;;;;;;17.10;3.30;;;23.20;23.70;;;;;;5071920;28;20114;-68
2022/05/02 08:29:48;;;;;;;12.77;3.08;;;23.20;24.00;;;;;;5056506;28;20619;-67
2022/05/02 08:32:22;;;;;;;18.38;3.38;;;23.10;23.80;;;;;;5052976;28;20460;-65
2022/05/02 08:35:02;;;;;;;20.15;2.95;;;23.10;24.20;;;;;;5036933;28;20613;-66
2022/05/02 08:37:47;;;;;;;15.30;3.35;;;23.10;24.30;;;;;;5054626;28;20533;-66
2022/05/02 08:40:27;;;;;;;18.00;3.25;;;23.00;24.60;;;;;;5050646;28;20118;-65
2022/05/02 08:42:56;;;;;;;18.48;3.45;;;22.80;24.40;;;;;;5040722;28;20096;-68
2022/05/02 08:45:50;;;;;;;28.27;4.65;;;22.60;24.70;;;;;;5043127;28;20256;-66
2022/05/02 08:48:41;;;;;;;17.88;3.55;;;22.70;25.10;;;;;;5070588;28;20099;-65
2022/05/02 08:51:44;;;;;;;19.50;3.72;;;22.70;24.80;;;;;;5070346;28;20072;-66
2022/05/02 08:54:20;;;;;;;20.25;3.67;;;22.70;25.10;;;;;;5054463;28;20142;-68
2022/05/02 08:57:08;;;;;;;22.38;3.53;;;22.70;25.40;;;;;;5055342;28;20539;-64
2022/05/02 09:00:06;;;;;;;14.88;3.72;;;22.70;25.30;;;;;;5038323;28;20134;-65
2022/05/02 09:02:42;;;;;;;21.90;3.80;;;22.50;25.40;;;;;;5038147;28;20090;-67
2022/05/02 09:05:30;;;;;;;18.15;3.55;;;22.50;25.50;;;;;;5040243;28;20076;-65
2022/05/02 09:07:59;;;;;;;11.65;3.35;;;22.50;26.00;;;;;;5039623;28;20091;-64
2022/05/02 09:10:59;;;;;;;23.23;4.10;;;22.40;25.90;;;;;;5039696;28;20158;-66
2022/05/02 09:13:40;;;;;;;23.92;4.25;;;22.50;26.20;;;;;;5064469;28;20126;-68
2022/05/02 09:16:32;;;;;;;16.20;3.00;;;22.50;26.10;;;;;;5052492;28;20107;-65
2022/05/02 09:19:24;;;;;;;17.00;3.55;;;22.40;26.30;;;;;;5055269;28;20118;-67
2022/05/02 09:22:12;;;;;;;24.25;3.63;;;22.30;26.10;;;;;;5036943;28;20142;-64
2022/05/02 09:25:13;;;;;;;15.05;3.92;;;22.20;26.00;;;;;;5038198;28;20082;-65
2022/05/02 09:28:00;;;;;;;21.85;4.03;;;22.30;26.30;;;;;;5034732;28;20139;-67
2022/05/02 09:30:29;;;;;;;;;;;22.20;26.10;;;;;;5038942;28;20119;-68
2022/05/02 09:33:33;;;;;;;13.25;4.15;;;22.20;26.30;;;;;;5054591;28;19991;-65
2022/05/02 09:36:23;;;;;;;21.88;3.95;;;22.20;26.30;;;;;;5031732;28;20107;-65
2022/05/02 09:38:53;;;;;;;27.73;4.30;;;22.20;26.80;;;;;;5054123;28;20079;-67
2022/05/02 09:41:40;;;;;;;27.00;4.07;;;22.20;26.90;;;;;;5039291;28;20072;-67
2022/05/02 09:51:03;;;;;;;24.35;4.57;;;22.20;27.30;;;;;;5054664;28;20118;-65
2022/05/02 09:53:42;;;;;;;20.50;4.28;;;22.00;26.90;;;;;;5027460;28;20076;-64
2022/05/02 09:56:38;;;;;;;17.15;4.32;;;22.00;27.20;;;;;;5034484;28;20504;-66
2022/05/02 09:59:17;;;;;;;22.45;4.45;;;22.00;27.50;;;;;;5019275;28;20415;-64
2022/05/02 10:02:01;;;;;;;25.67;4.30;;;21.90;27.80;;;;;;5035985;28;20068;-65
2022/05/02 10:04:40;;;;;;;20.65;4.45;;;21.90;28.20;;;;;;5037609;28;20619;-65
2022/05/02 10:07:08;;;;;;;26.80;4.38;;;21.90;28.00;;;;;;5055152;28;20631;-64
2022/05/02 10:10:04;;;;;;;22.33;4.30;;;21.90;27.70;;;;;;5054607;28;20088;-65
2022/05/02 10:12:53;;;;;;;23.80;5.25;;;21.80;27.70;;;;;;5035122;28;20085;-67
2022/05/02 10:15:47;;;;;;;31.10;5.93;;;21.70;27.70;;;;;;5052894;28;20094;-65
2022/05/02 10:18:51;;;;;;;34.88;7.10;;;21.70;28.10;;;;;;5074953;28;20130;-65
2022/05/02 10:21:33;;;;;;;44.55;10.65;;;21.80;29.70;;;;;;5085417;22;20087;-64
2022/05/02 10:24:27;;;;;;;41.85;8.93;;;21.80;32.00;;;;;;5036864;28;20145;-65
2022/05/02 10:27:19;;;;;;;42.28;8.02;;;21.80;31.30;;;;;;5068896;28;20072;-67
2022/05/02 10:29:57;;;;;;;28.58;7.18;;;21.60;31.20;;;;;;5052649;28;20125;-64
2022/05/02 10:32:37;;;;;;;34.80;8.63;;;21.60;31.30;;;;;;5052908;28;20071;-64
2022/05/02 10:35:04;;;;;;;49.05;10.27;;;21.60;31.70;;;;;;5052845;28;20075;-64
2022/05/02 10:37:35;;;;;;;45.67;13.25;;;21.60;32.30;;;;;;5036000;28;20072;-65
2022/05/02 10:40:10;;;;;;;50.05;13.93;;;21.70;32.80;;;;;;5071306;28;20091;-63
2022/05/02 10:42:45;;;;;;;45.53;16.45;;;21.60;32.70;;;;;;5052339;28;20068;-63
2022/05/02 10:45:11;;;;;;;43.10;15.20;;;21.60;32.80;;;;;;5037765;28;20335;-67
2022/05/02 10:47:52;;;;;;;40.78;13.63;;;21.50;32.70;;;;;;5038966;28;20099;-65
2022/05/02 10:50:20;;;;;;;44.70;10.48;;;21.50;32.90;;;;;;5074914;28;20120;-66
2022/05/02 10:52:46;;;;;;;54.60;11.55;;;21.40;32.80;;;;;;5057220;28;20149;-67
2022/05/02 10:55:18;;;;;;;;;;;21.40;33.90;;;;;;5057218;28;20138;-66
2022/05/02 10:58:16;;;;;;;59.78;11.25;;;21.40;34.30;;;;;;5075180;28;19956;-68
2022/05/02 11:01:01;;;;;;;45.00;12.27;;;21.30;34.50;;;;;;4977756;28;20110;-66
2022/05/02 11:03:50;;;;;;;54.00;11.90;;;21.30;35.10;;;;;;4960653;28;20082;-65
2022/05/02 11:06:53;;;;;;;55.25;11.40;;;21.30;35.60;;;;;;4981176;28;20081;-65
2022/05/02 11:09:36;;;;;;;49.15;12.23;;;21.30;35.60;;;;;;4980352;28;20100;-65
2022/05/02 11:12:04;;;;;;;49.13;10.95;;;21.20;35.60;;;;;;4961114;28;20169;-64
2022/05/02 11:14:52;;;;;;;42.67;9.20;;;21.20;35.90;;;;;;4960741;28;20090;-67
2022/05/02 11:17:37;;;;;;;30.92;7.57;;;21.10;35.60;;;;;;4975864;28;20173;-64
2022/05/02 11:23:26;;;;;;;24.45;5.97;;;21.00;35.20;;;;;;4978811;28;20479;-64
2022/05/02 11:26:20;;;;;;;27.77;5.82;;;21.00;35.10;;;;;;4957108;28;20075;-65
2022/05/02 11:29:09;;;;;;;19.17;4.97;;;20.90;35.00;;;;;;4958520;28;20230;-64
2022/05/02 11:32:05;;;;;;;18.70;5.57;;;20.80;35.20;;;;;;4957668;28;20078;-67
2022/05/02 11:34:42;;;;;;;22.38;5.35;;;20.70;35.30;;;;;;4976240;28;21150;-67
2022/05/02 11:37:32;;;;;;;22.42;5.10;;;20.70;35.50;;;;;;5019340;28;20084;-66
2022/05/02 11:40:06;;;;;;;19.80;5.40;;;20.70;35.60;;;;;;5013158;28;20163;-65
2022/05/02 11:42:33;;;;;;;20.08;5.15;;;20.80;35.80;;;;;;5060642;28;20130;-65
2022/05/02 11:45:11;;;;;;;23.38;5.32;;;20.80;35.70;;;;;;5030080;28;20412;-65
2022/05/02 11:48:01;;;;;;;28.85;5.50;;;20.70;35.60;;;;;;5055885;28;20094;-65
2022/05/02 11:50:28;;;;;;;26.80;5.38;;;20.80;35.90;;;;;;5044086;28;20134;-64
2022/05/02 11:53:01;;;;;;;20.05;5.68;;;20.80;35.80;;;;;;5069417;28;20084;-64
2022/05/02 11:55:29;;;;;;;24.20;6.15;;;20.80;35.80;;;;;;5063795;28;20072;-65
2022/05/02 11:58:08;;;;;;;20.85;6.47;;;20.70;35.60;;;;;;5017762;28;20442;-66
2022/05/02 12:00:36;;;;;;;24.05;7.28;;;20.40;35.70;;;;;;5031449;28;20080;-65
2022/05/02 12:03:18;;;;;;;27.85;8.10;;;20.40;36.10;;;;;;5043143;28;20095;-63
2022/05/02 12:05:54;;;;;;;24.98;7.45;;;20.40;36.20;;;;;;5037470;28;20081;-64
2022/05/02 12:08:36;;;;;;;32.33;7.03;;;20.40;36.10;;;;;;5039606;28;20084;-62
2022/05/02 12:11:09;;;;;;;28.55;7.55;;;20.30;36.50;;;;;;5068742;28;20137;-64
2022/05/02 12:13:45;;;;;;;22.75;6.50;;;20.40;36.60;;;;;;5048659;28;20123;-67
2022/05/02 12:16:18;;;;;;;22.60;6.38;;;20.40;36.60;;;;;;5043156;28;20101;-65
2022/05/02 12:18:54;;;;;;;21.77;5.82;;;20.40;36.60;;;;;;5042148;28;20124;-67
2022/05/02 12:21:46;;;;;;;26.63;6.72;;;20.30;37.00;;;;;;5020379;28;20076;-64
2022/05/02 12:24:26;;;;;;;31.73;6.22;;;20.30;36.80;;;;;;5050772;28;20077;-65
2022/05/02 12:26:53;;;;;;;30.48;6.20;;;20.30;37.20;;;;;;5033132;28;20076;-65
2022/05/02 12:29:21;;;;;;;21.35;5.95;;;20.30;37.20;;;;;;5053696;28;20099;-64
2022/05/02 12:32:00;;;;;;;27.55;7.00;;;20.20;37.40;;;;;;5034220;28;20068;-63
2022/05/02 12:34:41;;;;;;;25.52;6.53;;;20.10;37.30;;;;;;5052072;28;20079;-65
2022/05/02 12:37:42;;;;;;;32.25;6.78;;;20.00;37.50;;;;;;5034407;28;20076;-65
2022/05/02 12:40:18;;;;;;;27.65;6.90;;;20.00;37.80;;;;;;5035419;28;20168;-64
2022/05/02 12:42:50;;;;;;;36.00;7.00;;;20.10;38.10;;;;;;5034651;28;20503;-67
2022/05/02 12:45:19;;;;;;;25.30;5.78;;;20.10;38.30;;;;;;5052634;28;20083;-66
2022/05/02 12:47:51;;;;;;;31.75;6.25;;;20.20;38.40;;;;;;5035609;28;20190;-63
2022/05/02 12:50:27;;;;;;;24.63;7.40;;;20.00;37.80;;;;;;5034451;28;20072;-65
2022/05/02 12:53:01;;;;;;;34.95;7.57;;;20.00;38.10;;;;;;5034548;28;20068;-67
2022/05/02 12:55:33;;;;;;;28.25;7.28;;;20.00;38.60;;;;;;5033963;28;20125;-64
2022/05/02 13:00:58;;;;;;;23.73;5.40;;;20.10;38.50;;;;;;5051773;28;20083;-65
2022/05/02 13:03:29;;;;;;;24.33;6.10;;;20.10;38.40;;;;;;5032812;28;20099;-65
2022/05/02 13:05:57;;;;;;;29.35;6.18;;;20.00;38.30;;;;;;5034144;28;20560;-65
2022/05/02 13:08:41;;;;;;;42.47;7.45;;;19.90;38.70;;;;;;5056522;28;20119;-67
2022/05/02 13:11:11;;;;;;;35.88;6.65;;;20.00;39.10;;;;;;5033845;28;20495;-67
2022/05/02 13:13:49;;;;;;;28.10;7.07;;;20.10;39.10;;;;;;5034648;28;20088;-64
2022/05/02 13:16:21;;;;;;;46.00;6.97;;;20.10;39.70;;;;;;5051293;28;20541;-67
2022/05/02 13:18:51;;;;;;;38.22;7.13;;;20.00;39.80;;;;;;5034059;28;20100;-65
2022/05/02 13:21:19;;;;;;;27.13;6.85;;;20.10;39.30;;;;;;5033672;28;20523;-64
2022/05/02 13:23:48;;;;;;;36.38;7.65;;;20.10;39.20;;;;;;5071684;28;20114;-65
2022/05/02 13:26:27;;;;;;;25.33;6.80;;;20.10;39.10;;;;;;5052618;28;20079;-66
2022/05/02 13:29:22;;;;;;;32.05;6.78;;;20.00;39.10;;;;;;5053918;28;20186;-64
2022/05/02 13:32:02;;;;;;;41.55;6.97;;;20.00;39.10;;;;;;5061584;28;20119;-65
2022/05/02 13:34:51;;;;;;;44.03;7.68;;;20.00;38.60;;;;;;5055196;28;20076;-66
2022/05/02 13:37:33;;;;;;;40.17;6.88;;;20.10;39.40;;;;;;5070251;28;20068;-67
2022/05/02 13:40:02;;;;;;;29.10;6.00;;;20.20;39.50;;;;;;5070235;28;20075;-64
2022/05/02 13:42:55;;;;;;;27.02;6.25;;;20.30;39.50;;;;;;5053715;28;20091;-64